createdAt,value
2019-04-26T00:00:22.879Z,99.99
2019-04-26T00:01:27.334Z,99.99
2019-04-26T00:14:05.999Z,99.99
2019-04-26T00:14:56.684Z,99.99
2019-04-26T00:15:47.542Z,99.99
2019-04-26T00:16:48.499Z,99.99
2019-04-26T00:17:46.123Z,99.99
2019-04-26T00:20:48.900Z,99.99
2019-04-26T00:21:42.546Z,99.99
2019-04-26T00:22:41.332Z,99.99
2019-04-26T00:25:19.068Z,99.99
2019-04-26T00:26:08.941Z,99.99
2019-04-26T00:26:57.918Z,99.99
2019-04-26T00:27:51.091Z,99.99
2019-04-26T00:28:39.453Z,99.99
2019-04-26T00:31:17.183Z,99.99
2019-04-26T00:34:45.371Z,99.99
2019-04-26T00:35:46.768Z,99.99
2019-04-26T00:36:25.510Z,99.99
2019-04-26T00:37:22.482Z,99.99
2019-04-26T00:38:04.820Z,99.99
2019-04-26T00:38:45.280Z,99.99
2019-04-26T00:39:25.687Z,99.99
2019-04-26T00:40:06.594Z,99.99
2019-04-26T00:40:47.033Z,99.99
2019-04-26T00:41:27.721Z,99.99
2019-04-26T00:42:08.105Z,99.99
2019-04-26T00:42:48.629Z,99.99
2019-04-26T00:43:29.002Z,99.99
2019-04-26T00:44:09.555Z,99.99
2019-04-26T00:44:50.053Z,99.99
2019-04-26T00:45:30.609Z,99.99
2019-04-26T00:46:11.006Z,99.99
2019-04-26T00:46:52.045Z,99.99
2019-04-26T00:47:32.462Z,99.99
2019-04-26T00:48:13.943Z,99.99
2019-04-26T00:48:53.302Z,99.99
2019-04-26T00:49:43.322Z,99.99
2019-04-26T00:50:15.256Z,99.99
2019-04-26T00:50:54.602Z,99.99
2019-04-26T00:51:35.010Z,99.99
2019-04-26T00:52:15.808Z,99.99
2019-04-26T00:53:36.409Z,99.99
2019-04-26T00:54:17.773Z,99.99
2019-04-26T00:54:57.255Z,99.99
2019-04-26T00:56:18.147Z,99.99
2019-04-26T00:56:58.546Z,99.99
2019-04-26T00:57:38.960Z,99.99
2019-04-26T00:58:20.330Z,99.99
2019-04-26T00:59:01.231Z,99.99
2019-04-26T00:59:43.509Z,99.99
2019-04-26T01:01:15.239Z,99.99
2019-04-26T01:01:56.461Z,99.99
2019-04-26T01:02:38.806Z,99.99
2019-04-26T01:05:45.422Z,99.99
2019-04-26T01:07:23.771Z,99.99
2019-04-26T01:08:13.746Z,99.99
2019-04-26T01:09:02.654Z,99.99
2019-04-26T01:09:53.169Z,99.99
2019-04-26T01:10:42.534Z,99.99
2019-04-26T01:11:33.630Z,99.99
2019-04-26T01:12:24.058Z,99.99
2019-04-26T01:13:13.536Z,99.99
2019-04-26T01:14:05.226Z,99.99
2019-04-26T01:15:00.669Z,99.99
2019-04-26T01:15:49.561Z,99.99
2019-04-26T01:27:03.876Z,99.99
2019-04-26T01:27:53.833Z,99.99
2019-04-26T01:28:43.659Z,99.99
2019-04-26T01:29:36.050Z,99.99
2019-04-26T01:30:24.289Z,99.99
2019-04-26T01:31:14.708Z,99.99
2019-04-26T01:32:04.775Z,99.99
2019-04-26T01:33:11.300Z,99.99
2019-04-26T01:38:46.457Z,99.99
2019-04-26T01:39:41.292Z,99.99
2019-04-26T01:40:38.253Z,99.99
2019-04-26T02:16:29.313Z,99.99
2019-04-26T02:17:21.526Z,99.99
2019-04-26T02:21:23.582Z,99.99
2019-04-26T02:22:10.845Z,99.99
2019-04-26T02:23:00.508Z,99.99
2019-04-26T02:23:50.030Z,99.99
2019-04-26T02:24:40.739Z,99.99
2019-04-26T02:25:30.778Z,99.99
2019-04-26T02:26:18.373Z,99.99
2019-04-26T02:27:13.604Z,99.99
2019-04-26T02:28:06.144Z,99.99
2019-04-26T02:30:19.559Z,99.99
2019-04-26T02:32:17.084Z,99.99
2019-04-26T02:35:39.011Z,99.99
2019-04-26T02:36:47.733Z,99.99
2019-04-26T02:37:17.851Z,99.99
2019-04-26T02:38:06.367Z,99.99
2019-04-26T02:38:55.894Z,99.99
2019-04-26T02:39:46.811Z,99.99
2019-04-26T02:40:38.003Z,99.99
2019-04-26T02:41:27.380Z,99.99
2019-04-26T02:42:15.307Z,99.99
2019-04-26T02:43:05.760Z,99.99
2019-04-26T02:43:54.922Z,99.99
2019-04-26T02:44:44.009Z,99.99
2019-04-26T02:45:34.629Z,99.99
2019-04-26T02:46:22.689Z,99.99
2019-04-26T02:47:14.862Z,99.99
2019-04-26T02:48:06.458Z,99.99
2019-04-26T02:48:54.531Z,99.99
2019-04-26T02:49:44.037Z,99.48
2019-04-26T02:50:36.914Z,98.52
2019-04-26T02:51:28.419Z,97.75
2019-04-26T02:52:17.068Z,98.37
2019-04-26T02:54:11.700Z,98.23
2019-04-26T02:55:04.046Z,97.94
2019-04-26T02:57:44.397Z,97.61
2019-04-26T02:58:23.444Z,98.18
2019-04-26T02:59:05.651Z,98.8
2019-04-26T03:46:41.151Z,99.99
2019-04-26T03:49:12.892Z,99.99
2019-04-26T03:50:05.604Z,99.99
2019-04-26T03:50:57.657Z,99.99
2019-04-26T03:51:52.235Z,99.99
2019-04-26T03:57:20.856Z,99.99
2019-04-26T03:58:15.549Z,99.99
2019-04-26T03:59:06.394Z,99.99
2019-04-26T04:02:24.481Z,99.99
2019-04-26T04:03:17.535Z,99.99
2019-04-26T04:04:12.088Z,99.99
2019-04-26T04:05:05.717Z,99.99
2019-04-26T04:06:01.713Z,99.99
2019-04-26T04:09:50.679Z,99.99
2019-04-26T04:12:10.559Z,99.99
2019-04-26T04:15:49.388Z,99.99
2019-04-26T05:20:59.231Z,99.99
2019-04-26T05:22:02.948Z,99.99
2019-04-26T05:23:07.727Z,99.99
2019-04-26T05:24:07.023Z,99.99
2019-04-26T05:25:09.059Z,99.99
2019-04-26T05:26:07.499Z,99.99
2019-04-26T05:27:14.305Z,99.99
2019-04-26T05:28:16.900Z,99.99
2019-04-26T05:29:17.342Z,99.99
2019-04-26T05:30:15.739Z,99.99
2019-04-26T05:31:19.216Z,99.99
2019-04-26T05:32:20.476Z,99.99
2019-04-26T05:33:22.215Z,99.99
2019-04-26T05:34:27.917Z,99.99
2019-04-26T05:35:25.879Z,99.99
2019-04-26T05:36:26.238Z,99.99
2019-04-26T05:37:31.838Z,99.99
2019-04-26T05:38:33.059Z,99.99
2019-04-26T05:39:38.943Z,99.99
2019-04-26T05:40:40.376Z,99.99
2019-04-26T05:41:57.767Z,99.99
2019-04-26T05:43:13.529Z,99.99
2019-04-26T05:44:30.582Z,99.99
2019-04-26T05:49:24.006Z,99.99
2019-04-26T05:50:21.962Z,99.99
2019-04-26T06:04:45.651Z,99.99
2019-04-26T06:05:44.771Z,99.76
2019-04-26T06:06:39.214Z,99.76
2019-04-26T06:07:35.528Z,99.76
2019-04-26T06:08:36.502Z,99.09
2019-04-26T06:09:30.947Z,98.99
2019-04-26T06:10:40.277Z,97.56
2019-04-26T06:11:44.853Z,96.51
2019-04-26T06:12:42.266Z,96.32
2019-04-26T06:13:36.079Z,97.47
2019-04-26T06:14:31.137Z,95.36
2019-04-26T06:15:28.120Z,95.27
2019-04-26T06:16:22.241Z,96.32
2019-04-26T06:17:18.283Z,96.51
2019-04-26T06:18:20.130Z,97.37
2019-04-26T06:20:55.555Z,95.89
2019-04-26T06:21:49.693Z,95.61
2019-04-26T06:22:43.695Z,95.41
2019-04-26T06:23:43.250Z,95.22
2019-04-26T06:24:43.910Z,95.03
2019-04-26T06:25:43.304Z,93.5
2019-04-26T06:26:41.459Z,92.93
2019-04-26T06:27:41.895Z,91.39
2019-04-26T06:28:41.153Z,90.82
2019-04-26T06:29:37.675Z,92.54
2019-04-26T06:30:44.943Z,92.25
2019-04-26T06:31:31.134Z,91.39
2019-04-26T06:32:31.484Z,91.11
2019-04-26T06:33:39.079Z,89.96
2019-04-26T06:34:47.407Z,90.34
2019-04-26T06:35:42.978Z,91.39
2019-04-26T06:36:42.302Z,93.4
2019-04-26T06:37:36.932Z,94.65
2019-04-26T06:38:43.230Z,93.98
2019-04-26T06:39:31.085Z,93.69
2019-04-26T06:40:28.763Z,90.82
2019-04-26T06:41:24.265Z,90.63
2019-04-26T06:45:56.862Z,91.2
2019-04-26T06:50:31.782Z,91.2
2019-04-26T06:52:47.088Z,91.3
2019-04-26T06:53:58.802Z,91.88
2019-04-26T06:55:14.572Z,92.16
2019-04-26T06:57:20.022Z,93.69
2019-04-26T06:59:35.684Z,91.49
2019-04-26T07:00:06.693Z,91.49
2019-04-26T07:00:48.399Z,90.82
2019-04-26T07:01:29.394Z,90.82
2019-04-26T07:02:51.065Z,91.97
2019-04-26T07:03:31.851Z,92.64
2019-04-26T07:04:12.843Z,91.97
2019-04-26T07:04:53.911Z,91.11
2019-04-26T07:05:35.491Z,90.53
2019-04-26T07:06:16.497Z,91.78
2019-04-26T07:06:58.193Z,89.87
2019-04-26T07:07:38.785Z,89.96
2019-04-26T07:08:21.177Z,90.16
2019-04-26T07:09:02.749Z,90.34
2019-04-26T07:09:43.176Z,90.92
2019-04-26T07:10:24.489Z,90.06
2019-04-26T07:11:05.597Z,90.16
2019-04-26T07:11:47.555Z,89.96
2019-04-26T07:12:36.220Z,90.16
2019-04-26T07:13:17.285Z,90.49
2019-04-26T07:13:59.156Z,91.25
2019-04-26T07:14:38.076Z,91.54
2019-04-26T07:15:28.217Z,93.74
2019-04-26T07:16:47.188Z,92.69
2019-04-26T07:17:28.137Z,92.11
2019-04-26T07:18:08.529Z,92.4
2019-04-26T07:18:48.884Z,94.41
2019-04-26T07:19:29.380Z,94.12
2019-04-26T07:20:10.145Z,93.93
2019-04-26T07:20:50.558Z,93.93
2019-04-26T07:21:39.019Z,94.41
2019-04-26T07:22:35.033Z,94.79
2019-04-26T07:24:39.389Z,96.61
2019-04-26T07:25:53.526Z,96.75
2019-04-26T07:26:56.831Z,96.37
2019-04-26T07:28:03.555Z,96.56
2019-04-26T07:28:51.276Z,95.32
2019-04-26T07:31:38.058Z,90.77
2019-04-26T07:32:41.455Z,89.62
2019-04-26T07:33:45.094Z,87.62
2019-04-26T07:34:49.256Z,87.37
2019-04-26T07:36:40.699Z,83.83
2019-04-26T07:37:23.432Z,81.63
2019-04-26T07:38:04.799Z,80.77
2019-04-26T07:38:45.050Z,81.05
2019-04-26T07:39:25.474Z,80.87
2019-04-26T07:40:06.969Z,81.82
2019-04-26T07:42:07.944Z,80.62
2019-04-26T07:43:08.233Z,79.95
2019-04-26T07:48:36.775Z,77.94
2019-04-26T07:49:37.698Z,75.54
2019-04-26T07:50:39.963Z,77.65
2019-04-26T07:51:56.932Z,78.74
2019-04-26T07:52:55.694Z,77.59
2019-04-26T07:53:56.518Z,76.06
2019-04-26T07:55:15.876Z,77.31
2019-04-26T07:56:26.902Z,75.48
2019-04-26T07:57:30.346Z,76.44
2019-04-26T07:58:46.178Z,74.82
2019-04-26T07:59:49.335Z,74.72
2019-04-26T08:00:55.899Z,73.28
2019-04-26T08:02:01.600Z,72.71
2019-04-26T08:05:10.105Z,76.92
2019-04-26T08:08:50.085Z,74.24
2019-04-26T08:09:32.846Z,73.41
2019-04-26T08:10:14.631Z,74.47
2019-04-26T08:10:57.012Z,74.27
2019-04-26T08:11:38.371Z,74.47
2019-04-26T08:12:18.717Z,73.8
2019-04-26T08:12:59.338Z,73.22
2019-04-26T08:13:39.576Z,73.41
2019-04-26T08:14:20.096Z,72.94
2019-04-26T08:15:41.861Z,73.41
2019-04-26T08:16:25.958Z,73.32
2019-04-26T08:17:06.609Z,72.84
2019-04-26T08:17:47.711Z,73.7
2019-04-26T08:18:27.360Z,73.9
2019-04-26T08:19:08.452Z,73.22
2019-04-26T08:19:48.975Z,71.78
2019-04-26T08:20:32.105Z,72.17
2019-04-26T08:21:15.505Z,71.98
2019-04-26T08:21:54.247Z,72.07
2019-04-26T08:22:37.356Z,71.31
2019-04-26T08:23:37.799Z,72.07
2019-04-26T08:24:00.225Z,73.03
2019-04-26T08:25:22.883Z,72.74
2019-04-26T08:26:03.279Z,72.64
2019-04-26T08:26:43.776Z,73.13
2019-04-26T08:27:24.407Z,72.94
2019-04-26T08:28:05.589Z,72.17
2019-04-26T08:28:44.977Z,71.4
2019-04-26T08:29:25.596Z,71.69
2019-04-26T08:30:08.146Z,72.27
2019-04-26T08:30:46.381Z,72.17
2019-04-26T08:31:27.484Z,72.36
2019-04-26T08:32:08.794Z,73.8
2019-04-26T08:32:47.636Z,74.47
2019-04-26T08:33:28.111Z,74.47
2019-04-26T08:35:37.911Z,72.27
2019-04-26T08:39:45.062Z,71.88
2019-04-26T08:40:25.426Z,70.15
2019-04-26T08:41:00.204Z,72.17
2019-04-26T08:41:40.202Z,71.5
2019-04-26T08:42:23.695Z,71.69
2019-04-26T08:43:42.343Z,72.94
2019-04-26T08:44:22.922Z,73.61
2019-04-26T08:45:04.369Z,72.55
2019-04-26T08:45:52.158Z,72.45
2019-04-26T08:46:24.840Z,71.4
2019-04-26T08:47:05.929Z,73.13
2019-04-26T08:47:50.042Z,72.74
2019-04-26T08:48:29.069Z,72.64
2019-04-26T08:49:08.300Z,72.36
2019-04-26T08:49:48.256Z,72.84
2019-04-26T08:50:29.309Z,72.17
2019-04-26T08:51:10.903Z,73.9
2019-04-26T08:51:52.121Z,72.84
2019-04-26T08:52:31.496Z,72.36
2019-04-26T08:53:12.661Z,72.94
2019-04-26T08:53:54.100Z,73.03
2019-04-26T08:54:34.610Z,73.13
2019-04-26T08:55:15.011Z,73.99
2019-04-26T08:55:55.876Z,73.61
2019-04-26T08:56:37.290Z,72.64
2019-04-26T08:57:17.807Z,72.27
2019-04-26T08:57:59.439Z,71.59
2019-04-26T08:58:39.766Z,71.98
2019-04-26T08:59:21.114Z,72.55
2019-04-26T09:00:03.202Z,71.5
2019-04-26T09:00:44.610Z,71.11
2019-04-26T09:01:25.132Z,71.59
2019-04-26T09:02:05.335Z,70.92
2019-04-26T09:02:46.258Z,72.55
2019-04-26T09:03:27.610Z,72.36
2019-04-26T09:04:08.168Z,72.27
2019-04-26T09:04:49.052Z,71.11
2019-04-26T09:06:51.709Z,70.83
2019-04-26T09:07:32.681Z,71.5
2019-04-26T09:08:14.105Z,70.83
2019-04-26T09:08:54.789Z,71.59
2019-04-26T09:09:36.133Z,71.88
2019-04-26T09:10:16.583Z,72.36
2019-04-26T09:10:57.288Z,71.31
2019-04-26T09:11:37.701Z,70.38
2019-04-26T09:12:23.085Z,71.34
2019-04-26T09:12:58.553Z,71.63
2019-04-26T09:13:38.962Z,70.06
2019-04-26T09:14:19.426Z,70.29
2019-04-26T09:15:00.204Z,70.67
2019-04-26T09:15:40.903Z,71.25
2019-04-26T09:16:21.267Z,70
2019-04-26T09:17:01.714Z,70.29
2019-04-26T09:17:42.093Z,70.09
2019-04-26T09:18:22.661Z,70.29
2019-04-26T09:19:04.449Z,68.27
2019-04-26T09:19:45.538Z,69.52
2019-04-26T09:20:28.823Z,69.81
2019-04-26T09:21:06.243Z,69.04
2019-04-26T09:21:51.704Z,69.04
2019-04-26T09:22:27.670Z,67.83
2019-04-26T09:23:09.323Z,68.5
2019-04-26T09:23:51.803Z,68.3
2019-04-26T09:24:30.115Z,67.35
2019-04-26T09:25:10.550Z,68.02
2019-04-26T09:25:58.909Z,67.92
2019-04-26T09:26:31.921Z,67.06
2019-04-26T09:27:12.237Z,66.49
2019-04-26T09:28:33.136Z,66.86
2019-04-26T09:29:13.586Z,66.39
2019-04-26T09:29:54.337Z,67.38
2019-04-26T09:30:38.429Z,66.13
2019-04-26T09:31:15.317Z,66.33
2019-04-26T09:31:55.618Z,66.61
2019-04-26T09:32:35.991Z,66.33
2019-04-26T09:34:34.625Z,66.26
2019-04-26T09:35:30.574Z,64.98
2019-04-26T09:36:28.388Z,64.15
2019-04-26T09:38:48.784Z,64.25
2019-04-26T09:40:42.673Z,63.67
2019-04-26T09:41:48.260Z,63.54
2019-04-26T09:42:47.053Z,64.31
2019-04-26T09:44:00.303Z,64.98
2019-04-26T09:49:23.091Z,62.77
2019-04-26T09:50:05.476Z,64.89
2019-04-26T09:50:45.427Z,64.02
2019-04-26T09:51:30.013Z,64.12
2019-04-26T09:52:10.528Z,63.54
2019-04-26T09:52:51.001Z,63.92
2019-04-26T09:54:11.875Z,65.17
2019-04-26T09:54:52.296Z,65.65
2019-04-26T09:55:35.389Z,64.5
2019-04-26T09:56:15.707Z,64.5
2019-04-26T09:56:56.782Z,64.69
2019-04-26T09:57:37.159Z,63.51
2019-04-26T09:58:17.533Z,64.47
2019-04-26T09:59:01.418Z,65.43
2019-04-26T09:59:41.097Z,65.43
2019-04-26T10:00:20.324Z,66.42
2019-04-26T10:02:20.429Z,65.36
2019-04-26T10:03:01.679Z,64.98
2019-04-26T10:03:42.701Z,64.4
2019-04-26T10:06:22.115Z,63.64
2019-04-26T10:07:04.095Z,63.06
2019-04-26T10:07:43.557Z,63.25
2019-04-26T10:08:24.007Z,62.58
2019-04-26T10:09:04.406Z,63.35
2019-04-26T10:10:25.207Z,64.05
2019-04-26T10:11:09.150Z,65.3
2019-04-26T10:11:46.070Z,64.82
2019-04-26T10:12:26.472Z,64.25
2019-04-26T10:13:06.959Z,62.23
2019-04-26T10:13:47.323Z,61.84
2019-04-26T10:14:29.732Z,61.55
2019-04-26T10:15:10.125Z,61.55
2019-04-26T10:15:50.548Z,62.04
2019-04-26T10:16:33.437Z,61.55
2019-04-26T10:17:15.444Z,60.88
2019-04-26T10:17:52.076Z,61.27
2019-04-26T10:18:32.506Z,61.36
2019-04-26T10:19:13.163Z,61.75
2019-04-26T10:19:56.143Z,62.71
2019-04-26T10:20:36.549Z,62.61
2019-04-26T10:21:16.965Z,62.23
2019-04-26T10:21:57.358Z,60.69
2019-04-26T10:22:37.783Z,62.81
2019-04-26T10:23:18.245Z,63.19
2019-04-26T10:23:58.676Z,62.9
2019-04-26T10:24:39.788Z,62.99
2019-04-26T10:25:20.157Z,62.23
2019-04-26T10:26:00.607Z,62.9
2019-04-26T10:26:41.025Z,62.99
2019-04-26T10:27:21.509Z,62.81
2019-04-26T10:28:02.021Z,60.69
2019-04-26T10:28:42.470Z,60.69
2019-04-26T11:07:03.435Z,55.45
2019-04-26T11:07:42.984Z,55.45
2019-04-26T11:08:23.421Z,53.81
2019-04-26T11:09:03.835Z,53.53
2019-04-26T11:09:44.239Z,52.85
2019-04-26T11:10:24.689Z,52.66
2019-04-26T11:11:45.499Z,54.61
2019-04-26T11:12:25.858Z,53.65
2019-04-26T11:13:06.277Z,52.69
2019-04-26T11:13:46.761Z,53.17
2019-04-26T11:14:27.187Z,53.74
2019-04-26T11:15:11.446Z,53.87
2019-04-26T11:15:51.849Z,53.29
2019-04-26T11:16:32.248Z,52.71
2019-04-26T11:17:15.951Z,52.71
2019-04-26T11:17:53.066Z,52.04
2019-04-26T11:19:13.873Z,50.98
2019-04-26T11:19:54.278Z,50.69
2019-04-26T11:20:34.745Z,51.17
2019-04-26T11:21:56.004Z,51.94
2019-04-26T11:22:37.502Z,51.46
2019-04-26T11:23:16.317Z,50.4
2019-04-26T11:23:58.478Z,50.21
2019-04-26T11:24:38.825Z,50.01
2019-04-26T11:25:19.324Z,50.59
2019-04-26T11:26:01.571Z,51.26
2019-04-26T11:26:40.040Z,51.26
2019-04-26T11:27:20.476Z,49.7
2019-04-26T11:28:00.989Z,51.62
2019-04-26T11:28:42.037Z,50.88
2019-04-26T11:29:24.879Z,51.84
2019-04-26T11:30:11.382Z,51.84
2019-04-26T11:30:42.654Z,51.46
2019-04-26T11:31:23.235Z,51.07
2019-04-26T11:32:04.251Z,51.17
2019-04-26T11:32:45.747Z,51.26
2019-04-26T11:33:24.333Z,50.49
2019-04-26T11:34:05.694Z,50.49
2019-04-26T11:34:45.140Z,49.41
2019-04-26T11:35:25.565Z,50.95
2019-04-26T11:36:46.363Z,52.91
2019-04-26T11:37:26.782Z,52.61
2019-04-26T11:38:07.215Z,52.13
2019-04-26T11:38:48.587Z,51.26
2019-04-26T11:39:29.012Z,50.88
2019-04-26T11:40:10.138Z,50.98
2019-04-26T11:40:58.398Z,51.17
2019-04-26T11:41:33.961Z,52.23
2019-04-26T11:42:12.990Z,52.13
2019-04-26T11:42:51.926Z,52.52
2019-04-26T11:43:32.387Z,51.94
2019-04-26T11:44:12.907Z,52.04
2019-04-26T11:45:05.320Z,51.65
2019-04-26T11:45:33.527Z,51.29
2019-04-26T11:46:13.943Z,50.59
2019-04-26T11:46:54.372Z,51.77
2019-04-26T11:47:37.038Z,51.29
2019-04-26T11:48:15.357Z,50.32
2019-04-26T11:48:58.999Z,50.42
2019-04-26T11:49:37.273Z,50.54
2019-04-26T11:50:17.764Z,49.65
2019-04-26T11:50:57.976Z,48.79
2019-04-26T11:51:38.383Z,48.13
2019-04-26T11:52:18.809Z,48.03
2019-04-26T11:52:59.252Z,48.61
2019-04-26T11:53:40.357Z,48.81
2019-04-26T11:54:20.675Z,48.61
2019-04-26T11:55:00.562Z,47.65
2019-04-26T11:55:40.960Z,45.53
2019-04-26T11:56:21.383Z,46.01
2019-04-26T11:57:01.849Z,47.07
2019-04-26T11:57:43.614Z,48.42
2019-04-26T11:58:23.677Z,48.33
2019-04-26T11:59:03.066Z,48.42
2019-04-26T11:59:43.470Z,47.24
2019-04-26T12:00:23.883Z,47.63
2019-04-26T12:01:04.291Z,48.23
2019-04-26T12:01:44.643Z,47.92
2019-04-26T12:02:25.072Z,47.34
2019-04-26T12:03:05.429Z,46.88
2019-04-26T12:04:26.272Z,47.45
2019-04-26T12:05:06.671Z,47.27
2019-04-26T12:05:47.082Z,47.36
2019-04-26T12:06:27.415Z,48.52
2019-04-26T12:07:07.850Z,48.03
2019-04-26T12:07:48.298Z,46.78
2019-04-26T12:08:28.701Z,47.94
2019-04-26T12:09:09.137Z,46.97
2019-04-26T12:09:49.518Z,47.17
2019-04-26T12:10:29.925Z,48.06
2019-04-26T12:11:18.086Z,48.06
2019-04-26T12:12:03.628Z,48.03
2019-04-26T12:12:31.153Z,47.48
2019-04-26T12:13:11.633Z,47.38
2019-04-26T12:13:55.262Z,46.9
2019-04-26T12:14:34.414Z,45.75
2019-04-26T12:16:46.875Z,45.94
2019-04-26T12:17:15.596Z,46.71
2019-04-26T12:17:58.521Z,46.61
2019-04-26T12:18:40.145Z,46.03
2019-04-26T12:19:19.788Z,45.84
2019-04-26T12:19:58.580Z,46.33
2019-04-26T12:20:39.740Z,47.09
2019-04-26T12:21:19.993Z,44.49
2019-04-26T12:22:00.418Z,43.33
2019-04-26T12:22:43.241Z,43.81
2019-04-26T12:23:21.857Z,45.55
2019-04-26T12:24:01.581Z,46.13
2019-04-26T12:24:41.995Z,46.71
2019-04-26T12:25:22.448Z,44.29
2019-04-26T12:26:02.881Z,44.32
2019-04-26T12:27:26.417Z,43.74
2019-04-26T12:28:05.950Z,43.45
2019-04-26T12:28:44.365Z,43.47
2019-04-26T12:29:24.851Z,44.34
2019-04-26T12:30:05.168Z,44.53
2019-04-26T12:30:45.557Z,43.47
2019-04-26T12:31:25.964Z,44.34
2019-04-26T12:32:06.566Z,43.47
2019-04-26T12:32:46.936Z,42.91
2019-04-26T12:33:28.349Z,42.91
2019-04-26T12:34:08.676Z,43.1
2019-04-26T12:34:49.224Z,43.01
2019-04-26T12:35:30.069Z,42.93
2019-04-26T12:36:13.226Z,43.03
2019-04-26T12:36:50.479Z,42.93
2019-04-26T12:37:31.769Z,42.74
2019-04-26T12:38:12.162Z,41.99
2019-04-26T12:38:52.618Z,41.79
2019-04-26T12:39:36.572Z,40.63
2019-04-26T12:40:13.485Z,40.07
2019-04-26T12:40:53.755Z,39.69
2019-04-26T12:41:40.115Z,40.26
2019-04-26T12:42:14.681Z,38.91
2019-04-26T12:42:55.049Z,40.07
2019-04-26T12:43:36.404Z,40.17
2019-04-26T12:44:57.160Z,39.12
2019-04-26T12:45:37.594Z,38.83
2019-04-26T12:46:17.977Z,39.22
2019-04-26T12:46:59.248Z,38.15
2019-04-26T12:47:40.039Z,38.73
2019-04-26T12:48:19.142Z,38.83
2019-04-26T12:50:23.372Z,36.99
2019-04-26T12:51:20.460Z,37.87
2019-04-26T12:52:17.346Z,38.27
2019-04-26T12:53:17.930Z,38.66
2019-04-26T12:54:14.494Z,37.21
2019-04-26T12:56:06.181Z,38.56
2019-04-26T12:56:47.060Z,36.9
2019-04-26T12:57:27.457Z,37.48
2019-04-26T12:58:10.958Z,37.19
2019-04-26T12:58:49.887Z,37.36
2019-04-26T12:59:28.691Z,37.87
2019-04-26T13:00:09.059Z,38.45
2019-04-26T13:00:54.000Z,38.91
2019-04-26T13:01:29.876Z,38.81
2019-04-26T13:02:54.143Z,38.04
2019-04-26T13:03:31.138Z,37.85
2019-04-26T13:04:11.501Z,38.81
2019-04-26T13:04:51.954Z,38.23
2019-04-26T13:05:32.397Z,36.66
2019-04-26T13:06:12.847Z,37.05
2019-04-26T13:06:53.190Z,39.45
2019-04-26T13:07:33.641Z,38.87
2019-04-26T13:08:16.892Z,38.58
2019-04-26T13:08:56.006Z,39.06
2019-04-26T13:09:35.495Z,39.55
2019-04-26T13:10:17.801Z,40.13
2019-04-26T13:11:48.492Z,39.04
2019-04-26T13:12:19.026Z,40.2
2019-04-26T13:12:59.486Z,40.11
2019-04-26T13:13:40.204Z,40.32
2019-04-26T13:14:20.592Z,39.64
2019-04-26T13:15:01.035Z,39.64
2019-04-26T13:15:41.394Z,39.74
2019-04-26T13:16:26.082Z,38.78
2019-04-26T13:17:02.353Z,38.39
2019-04-26T13:17:42.619Z,39.16
2019-04-26T13:18:22.986Z,38.58
2019-04-26T13:19:05.312Z,38.68
2019-04-26T13:19:49.455Z,38.97
2019-04-26T13:20:28.665Z,39.16
2019-04-26T13:21:08.571Z,39.36
2019-04-26T13:21:48.897Z,38.68
2019-04-26T13:22:31.932Z,37.52
2019-04-26T13:23:09.711Z,37.13
2019-04-26T13:23:50.126Z,37.7
2019-04-26T13:24:30.451Z,38.18
2019-04-26T13:25:15.992Z,38.68
2019-04-26T13:25:51.292Z,39.16
2019-04-26T13:27:12.388Z,38.08
2019-04-26T13:27:52.675Z,37.6
2019-04-26T13:28:33.016Z,38.76
2019-04-26T13:29:13.522Z,38.56
2019-04-26T13:30:01.438Z,39.34
2019-04-26T13:30:34.440Z,38.66
2019-04-26T13:31:14.909Z,39.53
2019-04-26T13:31:55.300Z,38.93
2019-04-26T13:32:35.700Z,39.43
2019-04-26T13:33:16.305Z,39.51
2019-04-26T13:33:58.281Z,39.04
2019-04-26T13:34:37.346Z,38.95
2019-04-26T13:35:17.415Z,40.01
2019-04-26T13:36:04.906Z,39.34
2019-04-26T13:37:18.605Z,38.46
2019-04-26T13:37:58.977Z,37.7
2019-04-26T13:38:43.320Z,39.24
2019-04-26T13:40:01.451Z,38.1
2019-04-26T13:40:41.879Z,37.21
2019-04-26T13:41:22.321Z,37.4
2019-04-26T13:42:09.147Z,37.21
2019-04-26T13:42:47.362Z,37.42
2019-04-26T13:43:28.427Z,38.58
2019-04-26T13:44:06.886Z,38.29
2019-04-26T13:44:47.353Z,38.5
2019-04-26T13:45:27.723Z,38.31
2019-04-26T13:46:08.139Z,37.44
2019-04-26T13:46:48.712Z,35.91
2019-04-26T13:47:29.133Z,35.23
2019-04-26T13:48:09.555Z,36.49
2019-04-26T13:48:51.650Z,36.78
2019-04-26T13:49:32.001Z,36.68
2019-04-26T13:50:14.196Z,36.49
2019-04-26T13:50:57.262Z,35.42
2019-04-26T13:51:36.726Z,36.9
2019-04-26T13:52:59.444Z,34.47
2019-04-26T13:53:40.808Z,35.42
2019-04-26T13:54:22.695Z,33.97
2019-04-26T13:55:02.011Z,34.65
2019-04-26T13:55:43.437Z,36.4
2019-04-26T13:57:59.808Z,36
2019-04-26T13:58:44.352Z,35.42
2019-04-26T13:59:28.047Z,35.72
2019-04-26T14:00:06.676Z,35.04
2019-04-26T14:00:45.576Z,34.15
2019-04-26T14:01:25.977Z,35.6
2019-04-26T14:02:11.559Z,36.28
2019-04-26T14:02:46.785Z,36.66
2019-04-26T14:03:31.458Z,36.47
2019-04-26T14:04:08.934Z,37.15
2019-04-26T14:04:48.061Z,37.34
2019-04-26T14:05:28.411Z,37.34
2019-04-26T14:06:08.834Z,36.28
2019-04-26T14:06:49.199Z,36.96
2019-04-26T14:07:29.678Z,35.89
2019-04-26T14:08:10.036Z,36.38
2019-04-26T14:08:53.825Z,36.96
2019-04-26T14:09:33.591Z,37.07
2019-04-26T14:10:13.926Z,35.8
2019-04-26T14:10:54.652Z,36.18
2019-04-26T14:11:34.800Z,36.76
2019-04-26T14:12:55.599Z,37.17
2019-04-26T14:13:35.984Z,36.98
2019-04-26T14:14:16.377Z,37.07
2019-04-26T14:14:56.891Z,36.4
2019-04-26T14:15:39.366Z,35.81
2019-04-26T14:16:21.102Z,36.2
2019-04-26T14:17:00.223Z,36.49
2019-04-26T14:17:40.552Z,36.7
2019-04-26T14:18:20.928Z,35.64
2019-04-26T14:19:03.424Z,34.96
2019-04-26T14:19:48.927Z,35.44
2019-04-26T14:20:26.738Z,34.65
2019-04-26T14:21:06.083Z,35.81
2019-04-26T14:21:48.313Z,36.1
2019-04-26T14:22:28.700Z,35.72
2019-04-26T14:23:11.266Z,35.33
2019-04-26T14:23:51.032Z,34.54
2019-04-26T14:24:30.064Z,36.3
2019-04-26T14:25:11.289Z,36.18
2019-04-26T14:25:51.948Z,36.18
2019-04-26T14:26:35.217Z,35.89
2019-04-26T14:27:14.891Z,36.76
2019-04-26T14:27:53.269Z,37.44
2019-04-26T14:30:08.260Z,36.96
2019-04-26T14:30:47.891Z,37.26
2019-04-26T14:31:28.203Z,36.98
2019-04-26T14:32:08.636Z,36.49
2019-04-26T14:32:49.093Z,36.4
2019-04-26T14:33:30.743Z,35.72
2019-04-26T14:34:12.011Z,35.52
2019-04-26T14:34:50.265Z,35.52
2019-04-26T14:36:17.803Z,36.7
2019-04-26T14:37:05.753Z,36.32
2019-04-26T14:37:35.945Z,35.93
2019-04-26T14:38:27.222Z,35.93
2019-04-26T14:39:05.809Z,34.2
2019-04-26T14:39:50.423Z,34.78
2019-04-26T14:41:05.337Z,35.75
2019-04-26T14:41:46.111Z,35.27
2019-04-26T14:42:34.204Z,35.46
2019-04-26T14:43:52.448Z,34.77
2019-04-26T14:44:31.164Z,34.57
2019-04-26T14:45:22.585Z,34.27
2019-04-26T14:45:55.841Z,34.36
2019-04-26T14:46:32.450Z,35.23
2019-04-26T14:47:16.121Z,36.12
2019-04-26T14:47:54.426Z,36.41
2019-04-26T14:48:36.017Z,35.83
2019-04-26T14:49:14.620Z,36.24
2019-04-26T14:49:57.632Z,36.43
2019-04-26T14:50:35.967Z,35.46
2019-04-26T14:51:18.456Z,35.46
2019-04-26T14:51:57.354Z,35.46
2019-04-26T14:52:38.474Z,32.84
2019-04-26T14:54:53.721Z,35.46
2019-04-26T14:55:32.371Z,34.38
2019-04-26T14:56:12.842Z,35.64
2019-04-26T14:56:53.360Z,35.44
2019-04-26T14:57:34.750Z,34.47
2019-04-26T14:58:56.361Z,35.54
2019-04-26T14:59:39.287Z,36.32
2019-04-26T15:00:21.130Z,35.64
2019-04-26T15:00:58.528Z,35.73
2019-04-26T15:01:38.395Z,34.77
2019-04-26T15:02:18.806Z,34.19
2019-04-26T15:02:59.488Z,35.23
2019-04-26T15:03:39.856Z,35.15
2019-04-26T15:04:23.124Z,36
2019-04-26T15:05:07.203Z,35.62
2019-04-26T15:05:46.273Z,36.1
2019-04-26T15:07:05.602Z,36.3
2019-04-26T15:07:50.751Z,36.4
2019-04-26T15:08:26.123Z,36.3
2019-04-26T15:09:16.942Z,35.62
2019-04-26T15:09:47.189Z,35.04
2019-04-26T15:10:27.599Z,35.42
2019-04-26T15:11:08.218Z,35.72
2019-04-26T15:11:54.047Z,36.1
2019-04-26T15:12:29.450Z,36.3
2019-04-26T15:13:17.788Z,36.78
2019-04-26T15:13:50.633Z,36.3
2019-04-26T15:15:38.608Z,35.62
2019-04-26T15:16:22.127Z,36.49
2019-04-26T15:17:02.464Z,37.07
2019-04-26T15:17:42.258Z,37.15
2019-04-26T15:18:22.605Z,36.78
2019-04-26T15:19:06.207Z,37.26
2019-04-26T15:19:44.553Z,36.78
2019-04-26T15:20:25.010Z,37.07
2019-04-26T15:21:06.783Z,37.46